DLH513 EDDC-EDDV
Flight info
| Callsign | DLH513 |
|---|---|
| Flight time | 0h 39m |
| Altitude | 28000 |
| Route | BEBEX7E BEBEX Q230 TADUV T804 MAG/N0390F240 T804 HLZ HLZ1A |
| Aircraft | A320/M-SDE3FGHIRWY/LB1 |
Departure
| Time | 2026-05-01 12:39 |
|---|---|
| Airport | Dresden Airport (EDDC) |
Arrival
| Time | 2026-05-01 13:18 |
|---|---|
| Airport | Hannover Airport (EDDV) |
| Time | Latitude | Longitude | Altitude | Speed | Heading |
|---|---|---|---|---|---|
| 2026-05-01 12:13 | 51.12628 | 13.76543 | 714 ft | 0 kts | 221° |
| 2026-05-01 12:32 | 51.12633 | 13.76550 | 716 ft | 4 kts | 222° |
| 2026-05-01 12:33 | 51.12652 | 13.76580 | 716 ft | 4 kts | 233° |
| 2026-05-01 12:33 | 51.12664 | 13.76616 | 713 ft | 4 kts | 266° |
| 2026-05-01 12:33 | 51.12657 | 13.76649 | 712 ft | 3 kts | 311° |
| 2026-05-01 12:33 | 51.12655 | 13.76653 | 712 ft | 1 kts | 311° |
| 2026-05-01 12:35 | 51.12666 | 13.76633 | 715 ft | 7 kts | 311° |
| 2026-05-01 12:35 | 51.12697 | 13.76577 | 713 ft | 9 kts | 311° |
| 2026-05-01 12:36 | 51.12740 | 13.76499 | 713 ft | 10 kts | 311° |
| 2026-05-01 12:36 | 51.12783 | 13.76417 | 713 ft | 9 kts | 296° |
| 2026-05-01 12:36 | 51.12757 | 13.76346 | 711 ft | 7 kts | 219° |
| 2026-05-01 12:36 | 51.12721 | 13.76295 | 712 ft | 9 kts | 222° |
| 2026-05-01 12:37 | 51.12661 | 13.76212 | 713 ft | 11 kts | 220° |
| 2026-05-01 12:37 | 51.12606 | 13.76138 | 713 ft | 9 kts | 220° |
| 2026-05-01 12:37 | 51.12581 | 13.76063 | 716 ft | 5 kts | 291° |
| 2026-05-01 12:37 | 51.12602 | 13.76020 | 713 ft | 6 kts | 305° |
| 2026-05-01 12:38 | 51.12635 | 13.75953 | 713 ft | 8 kts | 310° |
| 2026-05-01 12:38 | 51.12675 | 13.75880 | 711 ft | 9 kts | 311° |
| 2026-05-01 12:38 | 51.12718 | 13.75829 | 712 ft | 7 kts | 354° |
| 2026-05-01 12:38 | 51.12780 | 13.75903 | 712 ft | 28 kts | 41° |
| 2026-05-01 12:39 | 51.13136 | 13.76390 | 714 ft | 103 kts | 41° |
| 2026-05-01 12:39 | 51.13833 | 13.77338 | 718 ft | 158 kts | 40° |
| 2026-05-01 12:39 | 51.14683 | 13.78541 | 1304 ft | 163 kts | 41° |
| 2026-05-01 12:39 | 51.15529 | 13.79751 | 2093 ft | 166 kts | 40° |
| 2026-05-01 12:40 | 51.16444 | 13.81041 | 2502 ft | 184 kts | 40° |
| 2026-05-01 12:40 | 51.17459 | 13.82449 | 2881 ft | 205 kts | 40° |
| 2026-05-01 12:40 | 51.18620 | 13.84007 | 3265 ft | 231 kts | 35° |
| 2026-05-01 12:40 | 51.20178 | 13.84883 | 3749 ft | 252 kts | 2° |
| 2026-05-01 12:41 | 51.21962 | 13.84701 | 4515 ft | 260 kts | 355° |
| 2026-05-01 12:41 | 51.23775 | 13.84378 | 5436 ft | 264 kts | 355° |
| 2026-05-01 12:41 | 51.25603 | 13.84020 | 6380 ft | 266 kts | 356° |
| 2026-05-01 12:41 | 51.27443 | 13.83672 | 7297 ft | 268 kts | 356° |
| 2026-05-01 12:42 | 51.29299 | 13.83079 | 8036 ft | 280 kts | 340° |
| 2026-05-01 12:42 | 51.30926 | 13.81307 | 8825 ft | 292 kts | 315° |
| 2026-05-01 12:42 | 51.31977 | 13.78489 | 9666 ft | 301 kts | 289° |
| 2026-05-01 12:42 | 51.32309 | 13.75158 | 10468 ft | 307 kts | 277° |
| 2026-05-01 12:43 | 51.32508 | 13.71689 | 10984 ft | 323 kts | 276° |
| 2026-05-01 12:43 | 51.32706 | 13.67991 | 11228 ft | 346 kts | 276° |
| 2026-05-01 12:43 | 51.32916 | 13.64073 | 11713 ft | 359 kts | 276° |
| 2026-05-01 12:43 | 51.33134 | 13.60071 | 12377 ft | 365 kts | 276° |
| 2026-05-01 12:44 | 51.33360 | 13.55999 | 13073 ft | 370 kts | 276° |
| 2026-05-01 12:44 | 51.33592 | 13.51869 | 13761 ft | 376 kts | 276° |
| 2026-05-01 12:44 | 51.34067 | 13.43433 | 15054 ft | 384 kts | 276° |
| 2026-05-01 12:45 | 51.34546 | 13.34870 | 16388 ft | 389 kts | 276° |
| 2026-05-01 12:45 | 51.34781 | 13.30546 | 17059 ft | 392 kts | 276° |
| 2026-05-01 12:45 | 51.35005 | 13.26330 | 17702 ft | 394 kts | 276° |
| 2026-05-01 12:46 | 51.35237 | 13.21947 | 18362 ft | 396 kts | 277° |
| 2026-05-01 12:46 | 51.35593 | 13.17508 | 18957 ft | 398 kts | 283° |
| 2026-05-01 12:46 | 51.36110 | 13.13211 | 19498 ft | 400 kts | 283° |
| 2026-05-01 12:46 | 51.36643 | 13.08816 | 20050 ft | 403 kts | 283° |
| 2026-05-01 12:47 | 51.37179 | 13.04406 | 20586 ft | 405 kts | 283° |
| 2026-05-01 12:47 | 51.37715 | 12.99970 | 21114 ft | 408 kts | 283° |
| 2026-05-01 12:47 | 51.38258 | 12.95433 | 21643 ft | 411 kts | 283° |
| 2026-05-01 12:47 | 51.38789 | 12.90928 | 22153 ft | 413 kts | 283° |
| 2026-05-01 12:48 | 51.39319 | 12.86392 | 22656 ft | 416 kts | 283° |
| 2026-05-01 12:48 | 51.39853 | 12.81828 | 23152 ft | 419 kts | 282° |
| 2026-05-01 12:48 | 51.40392 | 12.77230 | 23656 ft | 421 kts | 282° |
| 2026-05-01 12:48 | 51.40934 | 12.72605 | 24103 ft | 424 kts | 282° |
| 2026-05-01 12:49 | 51.41479 | 12.67948 | 24508 ft | 426 kts | 282° |
| 2026-05-01 12:49 | 51.42047 | 12.63288 | 24935 ft | 427 kts | 286° |
| 2026-05-01 12:49 | 51.42985 | 12.58775 | 25332 ft | 426 kts | 296° |
| 2026-05-01 12:49 | 51.44382 | 12.54596 | 25634 ft | 424 kts | 306° |
| 2026-05-01 12:50 | 51.46196 | 12.50898 | 25873 ft | 421 kts | 316° |
| 2026-05-01 12:50 | 51.48357 | 12.47759 | 26122 ft | 420 kts | 323° |
| 2026-05-01 12:50 | 51.50627 | 12.44798 | 26333 ft | 421 kts | 323° |
| 2026-05-01 12:50 | 51.52904 | 12.41811 | 26404 ft | 426 kts | 323° |
| 2026-05-01 12:51 | 51.55225 | 12.38747 | 26411 ft | 437 kts | 323° |
| 2026-05-01 12:51 | 51.57603 | 12.35597 | 26410 ft | 449 kts | 322° |
| 2026-05-01 12:51 | 51.62322 | 12.28740 | 26408 ft | 466 kts | 311° |
| 2026-05-01 12:52 | 51.64398 | 12.24704 | 26407 ft | 469 kts | 311° |
| 2026-05-01 12:52 | 51.68535 | 12.16572 | 26409 ft | 470 kts | 311° |
| 2026-05-01 12:52 | 51.70594 | 12.12502 | 26405 ft | 470 kts | 311° |
| 2026-05-01 12:53 | 51.74728 | 12.04323 | 26406 ft | 470 kts | 311° |
| 2026-05-01 12:53 | 51.76790 | 12.00238 | 26405 ft | 470 kts | 311° |
| 2026-05-01 12:53 | 51.78860 | 11.96138 | 26404 ft | 470 kts | 311° |
| 2026-05-01 12:54 | 51.80924 | 11.92041 | 26400 ft | 470 kts | 310° |
| 2026-05-01 12:54 | 51.85042 | 11.83855 | 26397 ft | 470 kts | 310° |
| 2026-05-01 12:54 | 51.87103 | 11.79744 | 26398 ft | 470 kts | 310° |
| 2026-05-01 12:55 | 51.91217 | 11.71514 | 26394 ft | 470 kts | 310° |
| 2026-05-01 12:55 | 51.93277 | 11.67383 | 26393 ft | 470 kts | 310° |
| 2026-05-01 12:55 | 51.95191 | 11.63544 | 26395 ft | 470 kts | 310° |
| 2026-05-01 12:56 | 51.97248 | 11.59410 | 26393 ft | 470 kts | 310° |
| 2026-05-01 12:56 | 51.99300 | 11.55277 | 26391 ft | 471 kts | 310° |
| 2026-05-01 12:56 | 52.01352 | 11.51142 | 26390 ft | 471 kts | 310° |
| 2026-05-01 12:56 | 52.03408 | 11.47001 | 26390 ft | 471 kts | 310° |
| 2026-05-01 12:57 | 52.05465 | 11.42854 | 26095 ft | 469 kts | 310° |
| 2026-05-01 12:57 | 52.09402 | 11.34869 | 25756 ft | 436 kts | 310° |
| 2026-05-01 12:57 | 52.11255 | 11.31089 | 25511 ft | 427 kts | 310° |
| 2026-05-01 12:58 | 52.13104 | 11.27324 | 25268 ft | 424 kts | 310° |
| 2026-05-01 12:58 | 52.14946 | 11.23576 | 25025 ft | 423 kts | 310° |
| 2026-05-01 12:58 | 52.16659 | 11.19700 | 24787 ft | 422 kts | 302° |
| 2026-05-01 12:59 | 52.19702 | 11.11560 | 23978 ft | 418 kts | 302° |
| 2026-05-01 12:59 | 52.21195 | 11.07508 | 23498 ft | 416 kts | 302° |
| 2026-05-01 12:59 | 52.24136 | 10.99470 | 22522 ft | 408 kts | 301° |
| 2026-05-01 13:00 | 52.27013 | 10.91618 | 21576 ft | 398 kts | 302° |
| 2026-05-01 13:00 | 52.28423 | 10.87776 | 21118 ft | 394 kts | 302° |
| 2026-05-01 13:01 | 52.30815 | 10.79831 | 20123 ft | 389 kts | 282° |
| 2026-05-01 13:01 | 52.31155 | 10.75454 | 19633 ft | 387 kts | 275° |
| 2026-05-01 13:01 | 52.31637 | 10.66738 | 18682 ft | 384 kts | 275° |
| 2026-05-01 13:02 | 52.31870 | 10.62401 | 18148 ft | 382 kts | 275° |
| 2026-05-01 13:07 | 52.36101 | 9.78170 | 7431 ft | 294 kts | 272° |
| 2026-05-01 13:07 | 52.36251 | 9.74855 | 6947 ft | 291 kts | 272° |
| 2026-05-01 13:07 | 52.36399 | 9.71583 | 6452 ft | 287 kts | 271° |
| 2026-05-01 13:08 | 52.36547 | 9.68343 | 5945 ft | 284 kts | 271° |
| 2026-05-01 13:08 | 52.36696 | 9.65136 | 5456 ft | 281 kts | 272° |
| 2026-05-01 13:08 | 52.36846 | 9.61967 | 4973 ft | 277 kts | 272° |
| 2026-05-01 13:08 | 52.36996 | 9.58836 | 4496 ft | 276 kts | 272° |
| 2026-05-01 13:09 | 52.37142 | 9.55696 | 4034 ft | 276 kts | 272° |
| 2026-05-01 13:09 | 52.37279 | 9.52558 | 3603 ft | 276 kts | 272° |
| 2026-05-01 13:09 | 52.37409 | 9.49446 | 3245 ft | 272 kts | 272° |
| 2026-05-01 13:09 | 52.37496 | 9.47421 | 3073 ft | 268 kts | 272° |
| 2026-05-01 13:11 | 52.37514 | 9.46958 | 3015 ft | 264 kts | 265° |
| 2026-05-01 13:11 | 52.37497 | 9.44093 | 2827 ft | 253 kts | 270° |
| 2026-05-01 13:12 | 52.37608 | 9.41318 | 2929 ft | 239 kts | 272° |
| 2026-05-01 13:12 | 52.37972 | 9.38682 | 2957 ft | 242 kts | 296° |
| 2026-05-01 13:12 | 52.39058 | 9.36615 | 2996 ft | 243 kts | 327° |
| 2026-05-01 13:12 | 52.40585 | 9.35716 | 2981 ft | 240 kts | 357° |
| 2026-05-01 13:13 | 52.42193 | 9.35659 | 3010 ft | 222 kts | 3° |
| 2026-05-01 13:13 | 52.43659 | 9.36032 | 2959 ft | 207 kts | 29° |
| 2026-05-01 13:13 | 52.44675 | 9.37494 | 2946 ft | 189 kts | 66° |
| 2026-05-01 13:13 | 52.45129 | 9.39389 | 3026 ft | 169 kts | 68° |
| 2026-05-01 13:14 | 52.45655 | 9.41014 | 2983 ft | 156 kts | 67° |
| 2026-05-01 13:14 | 52.45988 | 9.42628 | 2972 ft | 143 kts | 85° |
| 2026-05-01 13:14 | 52.46078 | 9.44220 | 2927 ft | 139 kts | 95° |
| 2026-05-01 13:14 | 52.46060 | 9.45796 | 2787 ft | 140 kts | 95° |
| 2026-05-01 13:15 | 52.46026 | 9.47459 | 2682 ft | 150 kts | 95° |
| 2026-05-01 13:15 | 52.45981 | 9.49210 | 2506 ft | 154 kts | 96° |
| 2026-05-01 13:15 | 52.45938 | 9.50965 | 2290 ft | 154 kts | 95° |
| 2026-05-01 13:15 | 52.45897 | 9.52677 | 2044 ft | 148 kts | 95° |
| 2026-05-01 13:16 | 52.45852 | 9.54376 | 1811 ft | 149 kts | 95° |
| 2026-05-01 13:16 | 52.45806 | 9.56049 | 1549 ft | 143 kts | 96° |
| 2026-05-01 13:16 | 52.45764 | 9.57645 | 1370 ft | 139 kts | 96° |
| 2026-05-01 13:17 | 52.45645 | 9.62210 | 779 ft | 135 kts | 96° |
| 2026-05-01 13:17 | 52.45606 | 9.63764 | 635 ft | 135 kts | 94° |
| 2026-05-01 13:18 | 52.45523 | 9.66806 | 317 ft | 135 kts | 94° |
| 2026-05-01 13:18 | 52.45484 | 9.68258 | 199 ft | 127 kts | 93° |
| 2026-05-01 13:18 | 52.45447 | 9.69483 | 190 ft | 79 kts | 92° |
| 2026-05-01 13:18 | 52.45431 | 9.70138 | 187 ft | 47 kts | 93° |
| 2026-05-01 13:19 | 52.45417 | 9.70594 | 190 ft | 22 kts | 92° |
| 2026-05-01 13:19 | 52.45464 | 9.70658 | 190 ft | 6 kts | 358° |
| 2026-05-01 13:19 | 52.45626 | 9.70668 | 201 ft | 13 kts | 329° |
| 2026-05-01 13:20 | 52.45652 | 9.70544 | 191 ft | 11 kts | 270° |
| 2026-05-01 13:20 | 52.45656 | 9.70423 | 191 ft | 10 kts | 273° |
| 2026-05-01 13:20 | 52.45660 | 9.70281 | 191 ft | 15 kts | 272° |
| 2026-05-01 13:21 | 52.45668 | 9.69967 | 197 ft | 13 kts | 272° |
| 2026-05-01 13:21 | 52.45672 | 9.69830 | 204 ft | 12 kts | 273° |
| 2026-05-01 13:21 | 52.45676 | 9.69705 | 194 ft | 11 kts | 272° |
| 2026-05-01 13:21 | 52.45679 | 9.69590 | 191 ft | 10 kts | 272° |
| 2026-05-01 13:22 | 52.45699 | 9.69501 | 200 ft | 8 kts | 324° |
| 2026-05-01 13:22 | 52.45744 | 9.69457 | 191 ft | 7 kts | 324° |
| 2026-05-01 13:22 | 52.45758 | 9.69386 | 201 ft | 6 kts | 276° |
| 2026-05-01 13:22 | 52.45771 | 9.69339 | 191 ft | 4 kts | 329° |
| 2026-05-01 13:23 | 52.45790 | 9.69348 | 191 ft | 3 kts | 27° |
| 2026-05-01 13:23 | 52.45812 | 9.69367 | 197 ft | 4 kts | 29° |
| 2026-05-01 13:23 | 52.45832 | 9.69387 | 205 ft | 3 kts | 31° |
| 2026-05-01 13:23 | 52.45840 | 9.69394 | 202 ft | 0 kts | 31° |